Time;durP1;ratioP1;P1;durP2;ratioP2;P2;SDS_P1;SDS_P2;PMS_P1;PMS_P2;Temp;Humidity;BMP_temperature;BMP_pressure;BME280_temperature;BME280_humidity;BME280_pressure;Samples;Min_cycle;Max_cycle;Signal;HPM_P1;HPM_P2
2022/10/13 00:00:26;;;;;;;;;;;19.50;99.90;;;;;;5105056;28;19916;-76
2022/10/13 00:02:53;;;;;;;;;;;19.50;99.90;;;;;;5093339;28;19908;-76
2022/10/13 00:05:20;;;;;;;;;;;19.50;99.90;;;;;;5092804;28;19915;-72
2022/10/13 00:07:47;;;;;;;;;;;19.40;99.90;;;;;;5092332;28;19912;-73
2022/10/13 00:10:13;;;;;;;;;;;19.30;99.90;;;;;;5104332;28;19919;-72
2022/10/13 00:12:40;;;;;;;;;;;19.30;99.90;;;;;;5107765;28;20418;-69
2022/10/13 00:15:08;;;;;;;;;;;19.20;99.90;;;;;;5092390;28;19908;-73
2022/10/13 00:17:38;;;;;;;;;;;19.10;99.90;;;;;;5091984;28;20288;-78
2022/10/13 00:20:05;;;;;;;;;;;19.10;99.90;;;;;;5092704;28;20002;-73
2022/10/13 00:22:32;;;;;;;;;;;19.10;99.90;;;;;;5092555;28;19962;-69
2022/10/13 00:24:59;;;;;;;;;;;18.80;99.90;;;;;;5092727;28;19912;-68
2022/10/13 00:27:25;;;;;;;;;;;18.70;99.90;;;;;;5092448;28;19912;-73
2022/10/13 00:29:52;;;;;;;;;;;18.70;99.90;;;;;;5092465;28;20317;-71
2022/10/13 00:32:18;;;;;;;;;;;18.70;99.90;;;;;;5092150;28;20401;-69
2022/10/13 00:34:45;;;;;;;;;;;18.70;99.90;;;;;;5092367;28;19916;-71
2022/10/13 00:37:12;;;;;;;;;;;18.80;99.90;;;;;;5091935;28;19943;-74
2022/10/13 00:39:40;;;;;;;;;;;18.70;99.90;;;;;;5095631;28;19908;-74
2022/10/13 00:42:06;;;;;;;;;;;18.70;99.90;;;;;;5096728;28;20314;-71
2022/10/13 00:44:51;;;;;;;;;;;18.80;99.90;;;;;;5096580;28;19912;-68
2022/10/13 00:47:19;;;;;;;;;;;18.90;99.90;;;;;;5097403;28;19919;-71
2022/10/13 00:49:45;;;;;;;;;;;19.00;99.90;;;;;;5096560;28;19908;-69
2022/10/13 00:52:13;;;;;;;;;;;18.90;99.90;;;;;;5096282;28;20276;-73
2022/10/13 00:54:40;;;;;;;;;;;18.70;99.90;;;;;;5096042;28;19914;-70
2022/10/13 00:57:08;;;;;;;;;;;18.70;99.90;;;;;;5095890;28;20255;-69
2022/10/13 00:59:35;;;;;;;;;;;18.70;99.90;;;;;;5077717;28;20359;-69
2022/10/13 01:02:02;;;;;;;;;;;18.60;99.90;;;;;;5096133;28;19969;-68
2022/10/13 01:04:42;;;;;;;;;;;18.60;99.90;;;;;;5096174;28;20282;-68
2022/10/13 01:07:08;;;;;;;;;;;18.70;99.90;;;;;;5095531;28;19912;-69
2022/10/13 01:09:40;;;;;;;;;;;18.80;99.90;;;;;;5095837;28;19916;-68
2022/10/13 01:12:10;;;;;;;;;;;18.70;99.90;;;;;;5096050;28;20035;-68
2022/10/13 01:14:54;;;;;;;;;;;18.70;99.90;;;;;;5093072;28;19912;-70
2022/10/13 01:17:24;;;;;;;;;;;18.80;99.90;;;;;;5095134;28;19951;-68
2022/10/13 01:19:51;;;;;;;;;;;18.70;99.90;;;;;;5095772;28;19916;-68
2022/10/13 01:22:22;;;;;;;;;;;18.60;99.90;;;;;;5095356;28;19912;-70
2022/10/13 01:25:00;;;;;;;;;;;18.70;99.90;;;;;;5093706;28;19919;-69
2022/10/13 01:27:34;;;;;;;;;;;18.70;99.90;;;;;;5095102;28;19912;-69
2022/10/13 01:30:05;;;;;;;;;;;18.80;99.90;;;;;;5096395;28;19912;-72
2022/10/13 01:32:41;;;;;;;;;;;18.70;99.90;;;;;;5102881;28;19916;-68
2022/10/13 01:35:09;;;;;;;;;;;18.70;99.90;;;;;;5095882;28;20312;-68
2022/10/13 01:37:43;;;;;;;;;;;18.60;99.90;;;;;;5095079;28;19991;-67
2022/10/13 01:40:13;;;;;;;;;;;18.60;99.90;;;;;;5095373;28;19908;-68
2022/10/13 01:42:40;;;;;;;;;;;18.50;99.90;;;;;;5095319;28;19912;-73
2022/10/13 01:45:07;;;;;;;;;;;18.50;99.90;;;;;;5095722;28;20377;-67
2022/10/13 01:47:34;;;;;;;;;;;18.40;99.90;;;;;;5094720;28;19912;-71
2022/10/13 01:50:01;;;;;;;;;;;18.40;99.90;;;;;;5094133;28;19915;-68
2022/10/13 01:52:31;;;;;;;;;;;18.40;99.90;;;;;;5095032;28;20014;-70
2022/10/13 01:55:04;;;;;;;;;;;18.30;99.90;;;;;;5095121;28;20271;-69
2022/10/13 01:57:35;;;;;;;;;;;18.40;99.90;;;;;;5094676;28;19908;-74
2022/10/13 02:00:07;;;;;;;;;;;18.40;99.90;;;;;;5094911;28;20362;-69
2022/10/13 02:02:37;;;;;;;;;;;18.50;99.90;;;;;;5094998;28;19912;-69
2022/10/13 02:05:11;;;;;;;;;;;18.50;99.90;;;;;;5095050;28;19908;-70
2022/10/13 02:07:43;;;;;;;;;;;18.50;99.90;;;;;;5094487;28;19912;-73
2022/10/13 02:10:17;;;;;;;;;;;18.50;99.90;;;;;;5105716;28;19928;-69
2022/10/13 02:12:51;;;;;;;;;;;18.50;99.90;;;;;;5110408;28;19908;-70
2022/10/13 02:15:22;;;;;;;;;;;18.60;99.90;;;;;;5094445;28;19979;-72
2022/10/13 02:17:50;;;;;;;;;;;18.60;99.90;;;;;;5094685;28;19912;-72
2022/10/13 02:20:17;;;;;;;;;;;18.60;99.90;;;;;;5094281;28;19959;-69
2022/10/13 02:22:45;;;;;;;;;;;18.70;99.90;;;;;;5094464;28;20504;-68
2022/10/13 02:25:12;;;;;;;;;;;18.70;99.90;;;;;;5094327;28;20380;-69
2022/10/13 02:27:39;;;;;;;;;;;18.80;99.90;;;;;;5093624;28;20385;-69
2022/10/13 02:30:05;;;;;;;;;;;18.80;99.90;;;;;;5094574;28;19919;-69
2022/10/13 02:32:32;;;;;;;;;;;18.90;99.90;;;;;;5094105;28;19916;-69
2022/10/13 02:34:59;;;;;;;;;;;18.80;99.90;;;;;;5094256;28;19912;-69
2022/10/13 02:37:25;;;;;;;;;;;18.90;99.90;;;;;;5093545;28;19912;-69
2022/10/13 02:39:52;;;;;;;;;;;18.80;99.90;;;;;;5093957;28;19908;-68
2022/10/13 02:42:19;;;;;;;;;;;18.80;99.90;;;;;;5094031;28;19908;-69
2022/10/13 02:44:46;;;;;;;;;;;18.90;99.90;;;;;;5094241;28;19908;-68
2022/10/13 02:47:12;;;;;;;;;;;18.90;99.90;;;;;;5093709;28;20359;-69
2022/10/13 02:49:39;;;;;;;;;;;19.00;99.90;;;;;;5093911;28;20093;-70
2022/10/13 02:52:06;;;;;;;;;;;19.00;99.90;;;;;;5093741;28;19927;-69
2022/10/13 02:54:32;;;;;;;;;;;19.00;99.90;;;;;;5093845;28;19977;-70
2022/10/13 02:56:59;;;;;;;;;;;19.00;99.90;;;;;;5093408;28;19912;-69
2022/10/13 02:59:25;;;;;;;;;;;19.00;99.90;;;;;;5093315;28;19912;-73
2022/10/13 03:01:52;;;;;;;;;;;19.00;99.90;;;;;;5093728;28;19908;-73
2022/10/13 03:04:19;;;;;;;;;;;18.90;99.90;;;;;;5094051;28;20008;-70
2022/10/13 03:06:45;;;;;;;;;;;18.90;99.90;;;;;;5095568;28;19912;-75
2022/10/13 03:09:12;;;;;;;;;;;18.90;99.90;;;;;;5096890;28;19973;-74
2022/10/13 03:11:39;;;;;;;;;;;18.90;99.90;;;;;;5094431;28;19922;-75
2022/10/13 03:14:06;;;;;;;;;;;18.80;99.90;;;;;;5091812;28;19923;-75
2022/10/13 03:16:32;;;;;;;;;;;18.80;99.90;;;;;;5092822;28;19947;-71
2022/10/13 03:18:59;;;;;;;;;;;18.80;99.90;;;;;;5093461;28;19977;-71
2022/10/13 03:21:26;;;;;;;;;;;18.80;99.90;;;;;;5093345;28;19920;-74
2022/10/13 03:23:52;;;;;;;;;;;18.90;99.90;;;;;;5093140;28;19915;-77
2022/10/13 03:26:19;;;;;;;;;;;18.90;99.90;;;;;;5093159;28;19990;-77
2022/10/13 03:28:51;;;;;;;;;;;18.80;99.90;;;;;;5093324;28;20380;-75
2022/10/13 03:31:19;;;;;;;;;;;18.80;99.90;;;;;;5093084;28;19952;-74
2022/10/13 03:33:46;;;;;;;;;;;18.90;99.90;;;;;;5093577;28;19908;-74
2022/10/13 03:36:12;;;;;;;;;;;18.90;99.90;;;;;;5093075;28;19954;-76
2022/10/13 03:38:39;;;;;;;;;;;18.90;99.90;;;;;;5093192;28;19955;-74
2022/10/13 03:41:06;;;;;;;;;;;18.90;99.90;;;;;;5092977;28;19998;-76
2022/10/13 03:43:33;;;;;;;;;;;19.00;99.90;;;;;;5093130;28;20289;-72
2022/10/13 03:46:01;;;;;;;;;;;19.00;99.90;;;;;;5092750;28;20366;-71
2022/10/13 03:48:28;;;;;;;;;;;19.10;99.90;;;;;;5093298;28;19915;-72
2022/10/13 03:50:55;;;;;;;;;;;19.30;99.90;;;;;;5093072;28;19943;-74
2022/10/13 03:53:21;;;;;;;;;;;19.40;99.90;;;;;;5092730;28;19931;-73
2022/10/13 03:55:54;;;;;;;;;;;19.60;99.90;;;;;;5090577;28;19912;-77
2022/10/13 03:58:22;;;;;;;;;;;19.60;99.90;;;;;;5092813;28;19912;-74
2022/10/13 04:00:49;;;;;;;;;;;19.60;99.90;;;;;;5092699;28;19908;-75
2022/10/13 04:03:16;;;;;;;;;;;19.50;99.90;;;;;;5092367;28;19948;-73
2022/10/13 04:05:43;;;;;;;;;;;19.40;99.90;;;;;;5092261;28;19912;-74
2022/10/13 04:08:11;;;;;;;;;;;19.30;99.90;;;;;;5090294;28;19916;-74
2022/10/13 04:10:37;;;;;;;;;;;19.20;99.90;;;;;;5107173;28;19927;-75
2022/10/13 04:13:04;;;;;;;;;;;19.30;99.90;;;;;;5103745;28;20013;-76
2022/10/13 04:15:35;;;;;;;;;;;19.30;99.90;;;;;;5092275;28;19974;-76
2022/10/13 04:18:02;;;;;;;;;;;19.30;99.90;;;;;;5092350;28;20350;-76
2022/10/13 04:20:29;;;;;;;;;;;19.40;99.90;;;;;;5092498;28;19912;-77
2022/10/13 04:22:55;;;;;;;;;;;19.50;99.90;;;;;;5092214;28;19912;-76
2022/10/13 04:25:22;;;;;;;;;;;19.60;99.90;;;;;;5091977;28;19913;-76
2022/10/13 04:27:49;;;;;;;;;;;19.70;99.90;;;;;;5091987;28;19912;-78
2022/10/13 04:30:15;;;;;;;;;;;19.80;99.90;;;;;;5092145;28;19965;-74
2022/10/13 04:32:42;;;;;;;;;;;19.90;99.90;;;;;;5092475;28;19908;-75
2022/10/13 04:35:09;;;;;;;;;;;19.90;99.90;;;;;;5091896;28;19908;-76
2022/10/13 04:37:35;;;;;;;;;;;19.80;99.90;;;;;;5092456;28;20359;-79
2022/10/13 04:40:02;;;;;;;;;;;19.70;99.90;;;;;;5099331;28;19947;-72
2022/10/13 04:42:29;;;;;;;;;;;19.60;99.90;;;;;;5111214;28;20005;-74
2022/10/13 04:44:55;;;;;;;;;;;19.40;99.90;;;;;;5093598;28;19909;-76
2022/10/13 04:47:23;;;;;;;;;;;19.40;99.90;;;;;;5091058;28;19947;-76
2022/10/13 04:49:49;;;;;;;;;;;19.30;99.90;;;;;;5092074;28;19996;-75
2022/10/13 04:52:16;;;;;;;;;;;19.30;99.90;;;;;;5092190;28;19916;-75
2022/10/13 04:54:43;;;;;;;;;;;19.20;99.90;;;;;;5091935;28;19909;-74
2022/10/13 04:57:09;;;;;;;;;;;19.20;99.90;;;;;;5091496;28;20000;-76
2022/10/13 04:59:36;;;;;;;;;;;19.20;99.90;;;;;;5092115;28;19915;-73
2022/10/13 05:02:03;;;;;;;;;;;19.10;99.90;;;;;;5092144;28;19912;-75
2022/10/13 05:04:30;;;;;;;;;;;19.10;99.90;;;;;;5092023;28;19954;-76
2022/10/13 05:06:56;;;;;;;;;;;19.10;99.90;;;;;;5092094;28;19908;-75
2022/10/13 05:09:23;;;;;;;;;;;19.10;99.90;;;;;;5091802;28;20014;-72
2022/10/13 05:11:49;;;;;;;;;;;19.10;99.90;;;;;;5089547;28;19924;-74
2022/10/13 05:14:16;;;;;;;;;;;19.20;99.90;;;;;;5091175;28;19908;-75
2022/10/13 05:16:43;;;;;;;;;;;19.30;99.90;;;;;;5091868;28;20333;-75
2022/10/13 05:19:09;;;;;;;;;;;19.40;99.90;;;;;;5091448;28;20336;-76
2022/10/13 05:21:36;;;;;;;;;;;19.30;99.90;;;;;;5092081;28;20374;-75
2022/10/13 05:24:04;;;;;;;;;;;19.30;99.90;;;;;;5090863;28;20010;-76
2022/10/13 05:26:34;;;;;;;;;;;19.20;99.90;;;;;;5092407;28;19959;-76
2022/10/13 05:29:01;;;;;;;;;;;19.20;99.90;;;;;;5095240;28;19908;-73
2022/10/13 05:31:29;;;;;;;;;;;19.20;99.90;;;;;;5095879;28;19928;-76
2022/10/13 05:33:56;;;;;;;;;;;19.20;99.90;;;;;;5095358;28;20377;-74
2022/10/13 05:36:33;;;;;;;;;;;19.10;99.90;;;;;;5095126;28;19912;-72
2022/10/13 05:39:01;;;;;;;;;;;19.00;99.90;;;;;;5095739;28;20332;-74
2022/10/13 05:41:28;;;;;;;;;;;19.00;99.90;;;;;;5095662;28;19969;-75
2022/10/13 05:43:59;;;;;;;;;;;19.00;99.90;;;;;;5095594;28;19917;-75
2022/10/13 05:46:26;;;;;;;;;;;19.00;99.90;;;;;;5095525;28;20011;-75
2022/10/13 05:48:53;;;;;;;;;;;19.00;99.90;;;;;;5095266;28;19908;-75
2022/10/13 05:51:46;;;;;;;;;;;19.10;99.90;;;;;;5093665;28;19920;-75
2022/10/13 05:54:12;;;;;;;;;;;19.10;99.90;;;;;;5090411;28;19908;-76
2022/10/13 05:56:44;;;;;;;;;;;19.20;99.90;;;;;;5092986;28;20053;-74
2022/10/13 05:59:12;;;;;;;;;;;19.20;99.90;;;;;;5093234;28;19947;-72
2022/10/13 06:01:41;;;;;;;;;;;19.20;99.90;;;;;;5093631;28;20267;-75
2022/10/13 06:04:10;;;;;;;;;;;19.10;99.90;;;;;;5092980;28;19908;-74
2022/10/13 06:06:37;;;;;;;;;;;19.10;99.90;;;;;;5092869;28;19957;-75
2022/10/13 06:09:04;;;;;;;;;;;19.20;99.90;;;;;;5094349;28;19908;-74
2022/10/13 06:11:30;;;;;;;;;;;19.10;99.90;;;;;;5113342;28;20014;-76
2022/10/13 06:13:57;;;;;;;;;;;19.10;99.90;;;;;;5102234;28;19912;-74
2022/10/13 06:16:24;;;;;;;;;;;19.10;99.90;;;;;;5105168;28;19919;-74
2022/10/13 06:18:51;;;;;;;;;;;19.00;99.90;;;;;;5113301;28;19908;-77
2022/10/13 06:21:17;;;;;;;;;;;19.00;99.90;;;;;;5106618;28;19999;-76
2022/10/13 06:23:44;;;;;;;;;;;18.90;99.90;;;;;;5102734;28;19908;-76
2022/10/13 06:26:10;;;;;;;;;;;18.90;99.90;;;;;;5102730;28;19944;-73
2022/10/13 06:28:37;;;;;;;;;;;18.90;99.90;;;;;;5101604;28;19942;-77
2022/10/13 06:31:05;;;;;;;;;;;18.90;99.90;;;;;;5102995;28;20264;-77
2022/10/13 06:33:32;;;;;;;;;;;18.80;99.90;;;;;;5098584;28;19916;-72
2022/10/13 06:36:03;;;;;;;;;;;18.80;99.90;;;;;;5091667;28;19961;-71
2022/10/13 06:38:30;;;;;;;;;;;18.70;99.90;;;;;;5092394;28;19919;-68
2022/10/13 06:41:04;;;;;;;;;;;18.70;99.90;;;;;;5093037;28;19912;-71
2022/10/13 06:43:30;;;;;;;;;;;18.70;99.90;;;;;;5092708;28;20275;-75
2022/10/13 06:45:59;;;;;;;;;;;18.60;99.90;;;;;;5092213;28;20375;-73
2022/10/13 06:48:26;;;;;;;;;;;18.60;99.90;;;;;;5092087;28;19954;-71
2022/10/13 06:50:54;;;;;;;;;;;18.60;99.90;;;;;;5092113;28;19947;-68
2022/10/13 06:53:20;;;;;;;;;;;18.50;99.90;;;;;;5073644;28;19935;-73
2022/10/13 06:55:47;;;;;;;;;;;18.50;99.90;;;;;;5091420;28;20360;-74
2022/10/13 06:58:15;;;;;;;;;;;18.50;99.90;;;;;;5091611;28;20400;-75
2022/10/13 07:00:42;;;;;;;;;;;18.50;99.90;;;;;;5073899;28;20045;-73
2022/10/13 07:03:13;;;;;;;;;;;18.50;99.90;;;;;;5091399;28;19912;-75
2022/10/13 07:05:40;;;;;;;;;;;18.50;99.90;;;;;;5091635;28;20105;-74
2022/10/13 07:08:06;;;;;;;;;;;18.50;99.90;;;;;;5091677;28;19918;-69
2022/10/13 07:10:34;;;;;;;;;;;18.50;99.90;;;;;;5091402;28;20040;-74
2022/10/13 07:13:00;;;;;;;;;;;18.40;99.90;;;;;;5124313;27;20031;-74
2022/10/13 07:15:27;;;;;;;;;;;18.30;99.90;;;;;;5091324;28;20354;-72
2022/10/13 07:17:54;;;;;;;;;;;18.40;99.90;;;;;;5091834;28;19912;-73
2022/10/13 07:20:21;;;;;;;;;;;18.40;99.90;;;;;;5091268;28;19963;-71
2022/10/13 07:22:48;;;;;;;;;;;18.30;99.90;;;;;;5091188;28;20031;-71
2022/10/13 07:25:15;;;;;;;;;;;18.30;99.90;;;;;;5091059;28;19914;-70
2022/10/13 07:27:43;;;;;;;;;;;18.30;99.90;;;;;;5091305;28;19919;-77
2022/10/13 07:30:10;;;;;;;;;;;18.30;99.90;;;;;;5091579;28;19908;-77
2022/10/13 07:32:37;;;;;;;;;;;18.30;99.90;;;;;;5091157;28;19927;-73
2022/10/13 07:35:04;;;;;;;;;;;18.20;99.90;;;;;;5091095;28;19965;-74
2022/10/13 07:37:31;;;;;;;;;;;18.20;99.90;;;;;;5091382;28;20350;-75
2022/10/13 07:39:59;;;;;;;;;;;18.20;99.90;;;;;;5090940;28;19919;-69
2022/10/13 07:42:26;;;;;;;;;;;18.20;99.90;;;;;;5091147;28;19912;-71
2022/10/13 07:44:52;;;;;;;;;;;18.10;99.90;;;;;;5090495;28;20363;-72
2022/10/13 07:47:19;;;;;;;;;;;18.20;99.90;;;;;;5090858;28;19912;-68
2022/10/13 07:49:46;;;;;;;;;;;18.10;99.90;;;;;;5090189;28;20023;-69
2022/10/13 07:52:12;;;;;;;;;;;18.10;99.90;;;;;;5093248;28;19920;-69
2022/10/13 07:54:39;;;;;;;;;;;18.10;99.90;;;;;;5101752;28;19915;-68
2022/10/13 07:57:06;;;;;;;;;;;18.10;99.90;;;;;;5091775;28;19943;-70
2022/10/13 07:59:33;;;;;;;;;;;18.10;99.90;;;;;;5090946;28;19920;-73
2022/10/13 08:02:00;;;;;;;;;;;18.10;99.90;;;;;;5090232;28;19920;-71
2022/10/13 08:04:34;;;;;;;;;;;18.10;99.90;;;;;;5090527;28;19941;-74
2022/10/13 08:07:01;;;;;;;;;;;18.00;99.90;;;;;;5090545;28;19912;-71
2022/10/13 08:09:28;;;;;;;;;;;18.00;99.90;;;;;;5092026;28;19912;-74
2022/10/13 08:11:55;;;;;;;;;;;18.00;99.90;;;;;;5092447;28;19947;-70
2022/10/13 08:14:21;;;;;;;;;;;18.00;99.90;;;;;;5092291;28;19908;-69
2022/10/13 08:16:49;;;;;;;;;;;18.10;99.90;;;;;;5091202;28;19908;-68
2022/10/13 08:19:16;;;;;;;;;;;18.10;99.90;;;;;;5082880;28;20309;-73
2022/10/13 08:21:45;;;;;;;;;;;18.10;99.90;;;;;;5084457;28;19979;-67
2022/10/13 08:24:14;;;;;;;;;;;18.10;99.90;;;;;;5084237;28;19982;-70
2022/10/13 08:26:41;;;;;;;;;;;18.10;99.90;;;;;;5083907;28;20492;-68
2022/10/13 08:29:08;;;;;;;;;;;18.10;99.90;;;;;;5083760;28;20011;-70
2022/10/13 08:31:34;;;;;;;;;;;18.10;99.90;;;;;;5083762;28;19927;-68
2022/10/13 08:34:01;;;;;;;;;;;18.10;99.90;;;;;;5083747;28;19954;-68
2022/10/13 08:36:28;;;;;;;;;;;18.00;99.90;;;;;;5084204;28;19916;-67
2022/10/13 08:38:54;;;;;;;;;;;18.00;99.90;;;;;;5083950;28;19916;-69
2022/10/13 08:41:25;;;;;;;;;;;18.00;99.90;;;;;;5083359;28;19912;-72
2022/10/13 08:43:55;;;;;;;;;;;18.00;99.90;;;;;;5083316;28;20299;-74
2022/10/13 08:46:27;;;;;;;;;;;18.00;99.90;;;;;;5083301;28;19962;-72
2022/10/13 08:48:54;;;;;;;;;;;18.00;99.90;;;;;;5083650;28;19912;-74
2022/10/13 08:51:21;;;;;;;;;;;18.00;99.90;;;;;;5083532;28;19916;-69
2022/10/13 08:53:48;;;;;;;;;;;18.00;99.90;;;;;;5091366;28;20006;-71
2022/10/13 08:56:15;;;;;;;;;;;18.00;99.90;;;;;;5091777;28;19916;-69
2022/10/13 08:58:42;;;;;;;;;;;18.00;99.90;;;;;;5092132;28;20000;-68
2022/10/13 09:01:09;;;;;;;;;;;18.00;99.90;;;;;;5095675;28;20354;-67
2022/10/13 09:03:46;;;;;;;;;;;18.00;99.90;;;;;;5095910;28;19951;-69
2022/10/13 09:06:13;;;;;;;;;;;18.00;99.90;;;;;;5095983;28;19914;-69
2022/10/13 09:08:43;;;;;;;;;;;18.00;99.90;;;;;;5096001;28;19912;-72
2022/10/13 09:11:11;;;;;;;;;;;18.00;99.90;;;;;;5095184;28;19920;-68
2022/10/13 09:13:38;;;;;;;;;;;18.00;99.90;;;;;;5095460;28;20314;-68
2022/10/13 09:16:05;;;;;;;;;;;18.00;99.90;;;;;;5095659;28;19916;-70
2022/10/13 09:18:32;;;;;;;;;;;18.00;99.90;;;;;;5128493;27;19912;-67
2022/10/13 09:21:09;;;;;;;;;;;18.00;99.90;;;;;;5095869;28;19965;-69
2022/10/13 09:23:36;;;;;;;;;;;18.00;99.90;;;;;;5128383;27;19934;-68
2022/10/13 09:26:07;;;;;;;;;;;18.00;99.90;;;;;;5095184;28;20425;-69
2022/10/13 09:28:33;;;;;;;;;;;18.00;99.90;;;;;;5096839;28;19912;-68
2022/10/13 09:31:03;;;;;;;;;;;18.00;99.90;;;;;;5101652;28;19927;-67
2022/10/13 09:33:33;;;;;;;;;;;18.00;99.90;;;;;;5096028;28;19908;-75
2022/10/13 09:36:01;;;;;;;;;;;18.00;99.90;;;;;;5095197;28;20270;-72
2022/10/13 09:38:28;;;;;;;;;;;17.90;99.90;;;;;;5095245;28;19908;-68
2022/10/13 09:40:59;;;;;;;;;;;18.00;99.90;;;;;;5089038;28;19919;-69
2022/10/13 09:43:46;;;;;;;;;;;18.00;99.90;;;;;;5086536;28;19937;-67
2022/10/13 09:46:19;;;;;;;;;;;17.90;99.90;;;;;;5086783;28;19912;-68
2022/10/13 09:48:56;;;;;;;;;;;17.90;99.90;;;;;;5086722;28;19985;-67
2022/10/13 09:51:30;;;;;;;;;;;17.90;99.90;;;;;;5086370;28;20432;-68
2022/10/13 09:53:56;;;;;;;;;;;17.90;99.90;;;;;;5085972;28;19940;-68
2022/10/13 09:56:26;;;;;;;;;;;17.90;99.90;;;;;;5086287;28;20021;-68
2022/10/13 09:58:59;;;;;;;;;;;18.00;99.90;;;;;;5086770;28;19935;-67
2022/10/13 10:01:30;;;;;;;;;;;17.90;99.90;;;;;;5086323;28;20061;-71
2022/10/13 10:03:57;;;;;;;;;;;17.90;99.90;;;;;;5086473;28;19912;-68
2022/10/13 10:06:23;;;;;;;;;;;17.90;99.90;;;;;;5085962;28;19952;-71
2022/10/13 10:08:55;;;;;;;;;;;18.00;99.90;;;;;;5086208;28;19912;-68
2022/10/13 10:11:28;;;;;;;;;;;18.00;99.90;;;;;;5064801;28;20391;-68
2022/10/13 10:13:56;;;;;;;;;;;18.00;99.90;;;;;;5066158;28;19948;-68
2022/10/13 10:16:30;;;;;;;;;;;18.00;99.90;;;;;;5065411;28;19995;-70
2022/10/13 10:19:14;;;;;;;;;;;18.00;99.90;;;;;;5065921;28;20438;-71
2022/10/13 10:22:02;;;;;;;;;;;18.00;99.90;;;;;;5065732;28;19955;-70
2022/10/13 10:24:38;;;;;;;;;;;18.00;99.90;;;;;;5080864;28;20294;-68
2022/10/13 10:27:18;;;;;;;;;;;18.00;99.90;;;;;;5066038;28;19916;-68
2022/10/13 10:29:53;;;;;;;;;;;18.00;99.90;;;;;;5065835;28;19943;-69
2022/10/13 10:32:43;;;;;;;;;;;17.90;99.90;;;;;;5065674;28;20026;-67
2022/10/13 10:35:19;;;;;;;;;;;18.00;99.90;;;;;;5059464;28;19935;-67
2022/10/13 10:37:57;;;;;;;;;;;18.00;99.90;;;;;;5066082;28;20031;-68
2022/10/13 10:40:39;;;;;;;;;;;17.90;99.90;;;;;;5065121;28;20275;-68
2022/10/13 10:43:09;;;;;;;;;;;18.00;99.90;;;;;;5065439;28;19939;-67
2022/10/13 10:45:38;;;;;;;;;;;18.00;99.90;;;;;;5065007;28;19926;-68
2022/10/13 10:48:24;;;;;;;;;;;17.90;99.90;;;;;;5047252;28;20403;-67
2022/10/13 10:50:51;;;;;;;;;;;18.00;99.90;;;;;;5065677;28;19940;-69
2022/10/13 10:53:22;;;;;;;;;;;18.00;99.90;;;;;;5065162;28;19916;-68
2022/10/13 10:55:54;;;;;;;;;;;17.90;99.90;;;;;;5065087;28;19913;-69
2022/10/13 10:58:21;;;;;;;;;;;18.00;99.90;;;;;;5065431;28;20397;-67
2022/10/13 11:00:53;;;;;;;;;;;18.00;99.90;;;;;;5064841;28;20032;-69
2022/10/13 11:03:46;;;;;;;;;;;17.90;99.90;;;;;;5065076;28;20331;-68
2022/10/13 11:06:12;;;;;;;;;;;18.00;99.90;;;;;;5067396;28;19913;-68
2022/10/13 11:08:41;;;;;;;;;;;17.90;99.90;;;;;;5072500;28;19999;-68
2022/10/13 11:11:20;;;;;;;;;;;17.90;99.90;;;;;;5091318;28;19928;-68
2022/10/13 11:13:51;;;;;;;;;;;17.90;99.90;;;;;;5093372;28;19918;-67
2022/10/13 11:16:29;;;;;;;;;;;17.90;99.90;;;;;;5093336;28;19999;-68
2022/10/13 11:19:04;;;;;;;;;;;17.90;99.90;;;;;;5093741;28;19936;-69
2022/10/13 11:22:03;;;;;;;;;;;17.90;99.90;;;;;;5093202;28;19908;-68
2022/10/13 11:24:29;;;;;;;;;;;17.90;99.90;;;;;;5080369;28;19953;-67
2022/10/13 11:27:16;;;;;;;;;;;17.90;99.90;;;;;;5093383;28;19912;-69
2022/10/13 11:29:46;;;;;;;;;;;17.90;99.90;;;;;;5093084;28;19912;-68
2022/10/13 11:32:25;;;;;;;;;;;17.80;99.90;;;;;;5092944;28;20010;-68
2022/10/13 11:35:07;;;;;;;;;;;17.90;99.90;;;;;;5092786;28;19908;-68
2022/10/13 11:37:42;;;;;;;;;;;17.90;99.90;;;;;;5093089;28;19919;-70
2022/10/13 11:40:27;;;;;;;;;;;17.90;99.90;;;;;;5093106;28;19912;-68
2022/10/13 11:42:57;;;;;;;;;;;17.90;99.90;;;;;;5093250;28;19912;-68
2022/10/13 11:45:29;;;;;;;;;;;17.90;99.90;;;;;;5092503;28;19935;-69
2022/10/13 11:48:01;;;;;;;;;;;17.90;99.90;;;;;;5093126;28;19912;-67
2022/10/13 11:50:43;;;;;;;;;;;17.80;99.90;;;;;;5093152;28;19972;-70
2022/10/13 11:53:15;;;;;;;;;;;17.90;99.90;;;;;;5092817;28;20362;-69
2022/10/13 11:55:52;;;;;;;;;;;17.80;99.90;;;;;;5092599;28;20300;-76
2022/10/13 11:58:20;;;;;;;;;;;17.90;99.90;;;;;;5092837;28;20373;-74
2022/10/13 12:00:51;;;;;;;;;;;17.80;99.90;;;;;;5092807;28;20340;-72
2022/10/13 12:03:25;;;;;;;;;;;17.80;99.90;;;;;;5092867;28;19916;-72
2022/10/13 12:05:52;;;;;;;;;;;17.80;99.90;;;;;;5092541;28;19912;-72
2022/10/13 12:08:20;;;;;;;;;;;17.80;99.90;;;;;;5092538;28;20335;-71
2022/10/13 12:10:50;;;;;;;;;;;17.80;99.90;;;;;;5092298;28;19946;-69
2022/10/13 12:13:35;;;;;;;;;;;17.80;99.90;;;;;;5092424;28;19913;-71
2022/10/13 12:16:06;;;;;;;;;;;17.80;99.90;;;;;;5092372;28;19908;-70
2022/10/13 12:18:34;;;;;;;;;;;17.80;99.90;;;;;;5092498;28;20371;-68
2022/10/13 12:21:03;;;;;;;;;;;17.80;99.90;;;;;;5092564;28;19935;-68
2022/10/13 12:23:31;;;;;;;;;;;17.70;99.90;;;;;;5092512;28;20275;-72
2022/10/13 12:26:01;;;;;;;;;;;17.80;99.90;;;;;;5092243;28;19950;-69
2022/10/13 12:28:29;;;;;;;;;;;17.70;99.90;;;;;;5092524;28;19908;-68
2022/10/13 12:30:59;;;;;;;;;;;17.70;99.90;;;;;;5092250;28;19916;-68
2022/10/13 12:33:31;;;;;;;;;;;17.70;99.90;;;;;;5092314;28;19908;-69
2022/10/13 12:36:30;;;;;;;;;;;17.70;99.90;;;;;;5091498;28;19946;-68
2022/10/13 12:39:01;;;;;;;;;;;17.80;99.90;;;;;;5079704;28;19955;-70
2022/10/13 12:41:32;;;;;;;;;;;17.80;99.90;;;;;;5092762;28;19919;-68
2022/10/13 12:43:59;;;;;;;;;;;17.80;99.90;;;;;;5100244;28;20393;-68
2022/10/13 12:46:51;;;;;;;;;;;17.70;99.90;;;;;;5095744;28;19915;-69
2022/10/13 12:49:23;;;;;;;;;;;17.70;99.90;;;;;;5124466;28;19962;-69
2022/10/13 12:52:02;;;;;;;;;;;17.70;99.90;;;;;;5093194;28;19916;-67
2022/10/13 12:54:31;;;;;;;;;;;17.70;99.90;;;;;;5092610;28;19919;-67
2022/10/13 12:56:59;;;;;;;;;;;17.70;99.90;;;;;;5093012;28;19957;-68
2022/10/13 12:59:26;;;;;;;;;;;17.70;99.90;;;;;;5092329;28;19919;-71
2022/10/13 13:01:55;;;;;;;;;;;17.70;99.90;;;;;;5092323;28;20278;-72
2022/10/13 13:04:21;;;;;;;;;;;17.60;99.90;;;;;;5091711;28;19908;-68
2022/10/13 13:06:52;;;;;;;;;;;17.60;99.90;;;;;;5092243;28;20500;-69
2022/10/13 13:09:21;;;;;;;;;;;17.60;99.90;;;;;;5091494;28;19923;-73
2022/10/13 13:11:48;;;;;;;;;;;17.60;99.90;;;;;;5092289;28;19920;-72
2022/10/13 13:14:34;;;;;;;;;;;17.60;99.90;;;;;;5091826;28;19908;-74
2022/10/13 13:17:05;;;;;;;;;;;17.60;99.90;;;;;;5091994;28;20290;-69
2022/10/13 13:19:32;;;;;;;;;;;17.60;99.90;;;;;;5092143;28;19908;-73
2022/10/13 13:21:59;;;;;;;;;;;17.60;99.90;;;;;;5092013;28;19916;-70
2022/10/13 13:24:26;;;;;;;;;;;17.60;99.90;;;;;;5091434;28;19908;-71
2022/10/13 13:26:53;;;;;;;;;;;17.50;99.90;;;;;;5091910;28;19919;-67
2022/10/13 13:29:19;;;;;;;;;;;17.50;99.90;;;;;;5091656;28;20286;-69
2022/10/13 13:31:46;;;;;;;;;;;17.50;99.90;;;;;;5091928;28;19923;-69
2022/10/13 13:34:12;;;;;;;;;;;17.50;99.90;;;;;;5091698;28;20382;-72
2022/10/13 13:36:40;;;;;;;;;;;17.50;99.90;;;;;;5092404;28;19930;-67
2022/10/13 13:39:13;;;;;;;;;;;17.50;99.90;;;;;;5090124;28;19919;-71
2022/10/13 13:41:39;;;;;;;;;;;17.50;99.90;;;;;;5091962;28;19915;-70
2022/10/13 13:44:06;;;;;;;;;;;17.40;99.90;;;;;;5091602;28;19923;-71
2022/10/13 13:46:33;;;;;;;;;;;17.40;99.90;;;;;;5092174;28;20065;-70
2022/10/13 13:49:01;;;;;;;;;;;17.40;99.90;;;;;;5095091;28;19919;-70
2022/10/13 13:51:28;;;;;;;;;;;17.40;99.90;;;;;;5095069;28;19927;-72
2022/10/13 13:53:55;;;;;;;;;;;17.40;99.90;;;;;;5094985;28;20325;-71
2022/10/13 13:56:22;;;;;;;;;;;17.40;99.90;;;;;;5094979;28;19933;-70
2022/10/13 13:58:48;;;;;;;;;;;17.30;99.90;;;;;;5095337;28;19912;-73
2022/10/13 14:01:15;;;;;;;;;;;17.30;99.90;;;;;;5094942;28;19957;-70
2022/10/13 14:03:42;;;;;;;;;;;17.30;99.90;;;;;;5095122;28;20364;-68
2022/10/13 14:06:16;;;;;;;;;;;17.30;99.90;;;;;;5094738;28;19915;-68
2022/10/13 14:08:43;;;;;;;;;;;17.20;99.90;;;;;;5127179;27;19920;-71
2022/10/13 14:11:09;;;;;;;;;;;17.30;99.90;;;;;;5094909;27;20001;-71
2022/10/13 14:13:36;;;;;;;;;;;17.30;99.90;;;;;;5094850;28;20289;-69
2022/10/13 14:16:03;;;;;;;;;;;17.30;99.90;;;;;;5094404;28;20271;-68
2022/10/13 14:18:30;;;;;;;;;;;17.30;99.90;;;;;;5095721;28;20435;-71
2022/10/13 14:20:57;;;;;;;;;;;17.30;99.90;;;;;;5111486;28;19929;-72
2022/10/13 14:23:24;;;;;;;;;;;17.30;99.90;;;;;;5097352;28;19919;-71
2022/10/13 14:25:50;;;;;;;;;;;17.30;99.90;;;;;;5094752;28;19918;-74
2022/10/13 14:28:17;;;;;;;;;;;17.30;99.90;;;;;;5095236;28;19912;-71